• Join FlightAware (Why Join?)
  • Login
  • US Flag 
09:21PM EDT


 

Airport Tracker/Info


-or-


 

Live Flight TrackerFlight Track Log ✈ UAL3776 ✈ 28-Apr-2013 ✈ KIAD - KRDU

Flight Track Log - Related Links

Times and Time Zones

All times are in EDT time to prevent confusion due to time zone crossing. See the UAL3776 flight status page for this flight to view local times or setup timezone preferences in your user account.

Time Position Orientation Groundspeed Altitude Reporting Facility
EDT Latitude Longitude Course Direction KTS MPH feet Rate Location/Type
03:41PM 38.9333 -77.5500 201° Southwest 200 230 3,200  Level Potomac TRACON
03:42PM 38.8667 -77.5667 191° South 240 276 5,600 2,700 Climbing Potomac TRACON
03:43PM 38.8000 -77.5667 180° South 243 280 8,700 2,640 Climbing Potomac TRACON
03:44PM 38.5126 -77.6552 185° South  Level Estimated
03:44PM 38.7333 -77.5667 180° South 270 311 11,000  Level Potomac TRACON
03:45PM 38.4038 -77.7036 218° Southwest  Level Estimated
03:45PM 38.6667 -77.5167 150° Southeast 313 360 13,300  Level Potomac TRACON
03:46PM 38.2950 -77.7519 201° Southwest  Level Estimated
03:46PM 38.6072 -77.4486 138° Southeast 329 379 14,900  Level Washington Center
03:47PM 38.5394 -77.3753 140° Southeast 329 379 15,800 1,260 Climbing Washington Center
03:48PM 38.4678 -77.4239 208° Southwest 264 304 17,400 1,320 Climbing Washington Center
03:49PM 38.4203 -77.5261 239° Southwest 267 307 18,400 1,260 Climbing Washington Center
03:50PM 38.3503 -77.6092 223° Southwest 305 351 20,000 1,560 Climbing Washington Center
03:51PM 38.2656 -77.6808 214° Southwest 344 396 21,600 960 Climbing Washington Center
03:52PM 38.1808 -77.7553 215° Southwest 362 417 22,000 180 Climbing Washington Center
03:53PM 38.0939 -77.8319 215° Southwest 375 432 22,000  Level Washington Center
03:54PM 38.0072 -77.9031 213° Southwest 381 438 22,000  Level Washington Center
03:55PM 37.9267 -77.9689 213° Southwest 371 427 22,000  Level Washington Center
03:56PM 37.8481 -78.0375 215° Southwest 359 413 22,000  Level Washington Center
03:57PM 37.7672 -78.1058 214° Southwest 354 407 22,000  Level Washington Center
03:58PM 37.6781 -78.1842 215° Southwest 360 414 22,000  Level Washington Center
03:59PM 37.5908 -78.2572 214° Southwest 365 420 22,000  Level Washington Center
04:00PM 37.5122 -78.3225 213° Southwest 370 426 22,000  Level Washington Center
04:01PM 37.4272 -78.3928 213° Southwest 370 426 22,000  Level Washington Center
04:02PM 37.3422 -78.4628 213° Southwest 375 432 22,000  Level Washington Center
04:03PM 37.2592 -78.5328 214° Southwest 370 426 22,000  Level Washington Center
04:04PM 37.1847 -78.5925 213° Southwest 349 402 22,000 -120 Level Washington Center
04:05PM 37.1122 -78.6547 214° Southwest 309 356 21,800 -1,140 Descending Washington Center
04:06PM 37.0397 -78.7117 212° Southwest 304 350 19,800 -1,920 Descending Washington Center
04:07PM 36.9692 -78.7711 214° Southwest 309 356 18,100 -960 Descending Washington Center
04:08PM 36.9053 -78.8231 213° Southwest 304 350 18,000 -60 Descending Washington Center
04:09PM 36.8392 -78.8775 213° Southwest 299 344 18,000  Level Washington Center
04:10PM 36.7772 -78.9319 215° Southwest 299 344 18,000 -900 Level Washington Center
04:11PM 36.7067 -78.9883 213° Southwest 304 350 16,300 -1,800 Descending Washington Center
04:12PM 36.6392 -79.0167 199° South 267 307 14,500 -2,160 Descending Washington Center
04:13PM 36.5731 -78.9903 162° South 286 329 12,600 -2,040 Descending Washington Center
04:13PM 36.5608 -78.9847 160° South 267 307 12,500 -1,740 Descending Washington Center
04:14PM 36.4842 -78.9606 166° South 288 331 10,700 -1,500 Descending Washington Center
04:15PM 36.4200 -78.9425 167° South 278 320 10,000 -540 Descending Washington Center
04:15PM 36.4097 -78.9419 178° South 280 322 10,100  Climbing Washington Center
04:16PM 36.3372 -78.9208 167° South 264 304 10,000 -60 Descending Washington Center
04:17PM 36.2647 -78.8972 165° South 269 310 10,000 -300 Level Washington Center
04:18PM 36.1986 -78.8789 167° South 268 308 9,500 -1,080 Descending Washington Center
04:19PM 36.1281 -78.8606 168° South 264 304 8,100 -840 Descending Washington Center
04:20PM 36.0658 -78.8450 169° South 240 276 8,000 -120 Descending Washington Center
04:20PM 36.0578 -78.8422 164° South 257 296 8,000  Level Washington Center
04:21PM 36.0056 -78.8425 180° South 213 245 8,000  Level Washington Center
04:21PM 35.9950 -78.8422 179° South 237 273 8,000 -1,020 Level Washington Center
04:22PM 35.9419 -78.8783 209° Southwest 218 251 6,800 -1,140 Descending Washington Center
04:23PM 35.8992 -78.9203 218° Southwest 215 247 6,000 -660 Descending Washington Center
04:24PM 35.8581 -78.9725 226° Southwest 208 239 5,600 -960 Descending Washington Center
04:25PM 35.8147 -79.0269 226° Southwest 177 204 4,000 -900 Descending Washington Center
04:26PM 35.7797 -79.0125 161° South 164 189 3,800 -540 Descending Washington Center
04:27PM 35.7625 -78.9581 111° Southeast 185 213 3,000 -600 Descending Washington Center
04:28PM 35.7975 -78.8981 54° Northeast 207 238 2,600 -420 Descending Washington Center